Time;durP1;ratioP1;P1;durP2;ratioP2;P2;SDS_P1;SDS_P2;PMS_P1;PMS_P2;Temp;Humidity;BMP_temperature;BMP_pressure;BME280_temperature;BME280_humidity;BME280_pressure;Samples;Min_cycle;Max_cycle;Signal;HPM_P1;HPM_P2
2023/09/04 00:01:08;;;;;;;14.30;11.20;;;;;;;14.77;100.00;102897.84;5022590;28;20033;-77
2023/09/04 00:03:35;;;;;;;11.07;9.73;;;;;;;14.76;100.00;102904.00;4999827;28;20049;-76
2023/09/04 00:06:04;;;;;;;11.82;10.63;;;;;;;14.75;100.00;102903.13;5007675;28;20045;-76
2023/09/04 00:08:32;;;;;;;13.57;10.25;;;;;;;14.75;100.00;102904.88;5000156;28;20045;-76
2023/09/04 00:10:59;;;;;;;11.88;10.75;;;;;;;14.73;100.00;102903.97;5000524;28;20053;-76
2023/09/04 00:13:27;;;;;;;11.90;10.65;;;;;;;14.72;100.00;102907.47;4998187;28;20064;-76
2023/09/04 00:15:56;;;;;;;12.50;11.18;;;;;;;14.69;100.00;102903.00;5015224;28;20037;-76
2023/09/04 00:18:24;;;;;;;12.00;10.18;;;;;;;14.69;100.00;102896.78;5023319;28;20060;-76
2023/09/04 00:20:52;;;;;;;12.60;10.02;;;;;;;14.68;100.00;102895.91;5007503;28;20061;-76
2023/09/04 00:23:20;;;;;;;13.65;11.68;;;;;;;14.69;100.00;102908.31;5022855;28;20048;-76
2023/09/04 00:25:47;;;;;;;13.13;10.65;;;;;;;14.71;100.00;102895.09;5026880;28;20057;-76
2023/09/04 00:28:18;;;;;;;13.93;10.13;;;;;;;14.70;100.00;102910.09;5003304;28;20053;-76
2023/09/04 00:30:46;;;;;;;11.80;10.55;;;;;;;14.70;100.00;102895.94;4979445;28;20064;-77
2023/09/04 00:33:13;;;;;;;12.98;10.38;;;;;;;14.69;100.00;102896.78;5024045;28;20041;-76
2023/09/04 00:35:42;;;;;;;15.45;11.45;;;;;;;14.67;100.00;102894.13;4996652;28;21170;-76
2023/09/04 00:38:09;;;;;;;12.50;10.80;;;;;;;14.64;100.00;102894.06;5018958;28;20049;-75
2023/09/04 00:40:37;;;;;;;10.90;9.90;;;;;;;14.60;100.00;102903.72;5024255;28;20049;-76
2023/09/04 00:43:05;;;;;;;13.27;10.00;;;;;;;14.59;100.00;102912.56;4985817;28;20053;-76
2023/09/04 00:45:34;;;;;;;11.48;10.32;;;;;;;14.57;100.00;102905.41;5020766;28;20053;-77
2023/09/04 00:48:03;;;;;;;12.65;11.30;;;;;;;14.53;100.00;102908.84;5014635;28;20509;-76
2023/09/04 00:50:32;;;;;;;12.45;10.93;;;;;;;14.51;100.00;102903.50;5040383;28;20498;-76
2023/09/04 00:53:04;;;;;;;11.23;10.02;;;;;;;14.49;100.00;102915.84;5014605;28;20054;-76
2023/09/04 00:55:32;;;;;;;13.48;9.50;;;;;;;14.48;100.00;102913.16;5023782;28;20081;-76
2023/09/04 00:58:00;;;;;;;11.88;9.48;;;;;;;14.46;100.00;102897.22;4989874;28;20049;-76
2023/09/04 01:00:30;;;;;;;11.13;10.13;;;;;;;14.45;100.00;102900.75;5005752;28;20517;-76
2023/09/04 01:02:59;;;;;;;11.75;10.55;;;;;;;14.42;100.00;102901.56;4997274;28;20839;-76
2023/09/04 01:05:29;;;;;;;13.02;11.77;;;;;;;14.41;100.00;102907.72;5025662;28;20584;-76
2023/09/04 01:07:58;;;;;;;12.63;11.33;;;;;;;14.39;100.00;102901.50;5012170;28;20042;-76
2023/09/04 01:10:36;;;;;;;16.10;12.38;;;;;;;14.37;100.00;102894.41;5025852;28;20326;-76
2023/09/04 01:13:12;;;;;;;12.55;11.25;;;;;;;14.35;100.00;102896.13;4988598;28;20064;-75
2023/09/04 01:15:39;;;;;;;12.75;11.07;;;;;;;14.31;100.00;102892.50;5040822;28;20042;-76
2023/09/04 01:18:08;;;;;;;13.32;11.40;;;;;;;14.29;100.00;102888.94;5007015;28;20037;-76
2023/09/04 01:20:36;;;;;;;15.10;12.40;;;;;;;14.29;100.00;102891.59;5021629;28;20048;-76
2023/09/04 01:23:04;;;;;;;13.68;12.27;;;;;;;14.30;100.00;102892.47;4997719;28;20062;-76
2023/09/04 01:25:35;;;;;;;16.40;11.95;;;;;;;14.28;100.00;102889.78;5023066;28;20053;-76
2023/09/04 01:28:15;;;;;;;14.73;12.40;;;;;;;14.27;100.00;102895.94;5007211;28;20057;-76
2023/09/04 01:31:24;;;;;;;15.02;11.18;;;;;;;14.26;100.00;102896.81;4985838;28;20052;-76
2023/09/04 01:34:15;;;;;;;12.05;10.50;;;;;;;14.22;100.00;102894.97;4988765;28;20458;-77
2023/09/04 01:36:44;;;;;;;18.00;11.30;;;;;;;14.19;100.00;102893.13;5013695;28;20411;-76
2023/09/04 01:39:13;;;;;;;15.32;11.98;;;;;;;14.16;100.00;102893.09;5038928;28;20042;-76
2023/09/04 01:41:40;;;;;;;16.55;12.50;;;;;;;14.14;100.00;102888.59;5039282;28;20449;-77
2023/09/04 01:44:08;;;;;;;14.77;12.77;;;;;;;14.14;100.00;102888.59;5024429;28;20041;-76
2023/09/04 01:46:35;;;;;;;14.50;12.93;;;;;;;14.14;100.00;102883.28;4986305;28;20064;-77
2023/09/04 01:49:04;;;;;;;15.40;13.07;;;;;;;14.13;100.00;102870.91;5013407;28;20049;-76
2023/09/04 01:51:31;;;;;;;16.75;13.88;;;;;;;14.13;100.00;102874.44;5041271;28;20053;-76
2023/09/04 01:53:59;;;;;;;17.33;13.93;;;;;;;14.12;100.00;102872.69;5007688;28;20045;-76
2023/09/04 01:56:26;;;;;;;14.93;12.65;;;;;;;14.10;100.00;102866.47;5021113;28;20065;-77
2023/09/04 01:58:53;;;;;;;16.23;12.30;;;;;;;14.08;100.00;102865.50;5004535;28;20046;-77
2023/09/04 02:01:21;;;;;;;14.98;13.38;;;;;;;14.07;100.00;102865.50;4977348;28;20053;-76
2023/09/04 02:03:56;;;;;;;15.77;13.68;;;;;;;14.04;100.00;102864.56;5016213;28;20037;-76
2023/09/04 02:06:26;;;;;;;16.63;14.32;;;;;;;14.06;100.00;102871.63;5026405;28;20045;-76
2023/09/04 02:08:56;;;;;;;19.42;15.45;;;;;;;14.03;100.00;102872.47;5010987;28;20472;-76
2023/09/04 02:11:24;;;;;;;18.50;15.65;;;;;;;14.02;100.00;102870.69;5025753;28;20044;-76
2023/09/04 02:13:52;;;;;;;16.67;14.25;;;;;;;14.00;100.00;102873.28;4990650;28;20049;-76
2023/09/04 02:16:19;;;;;;;14.48;12.80;;;;;;;13.99;100.00;102868.88;5026254;28;20041;-76
2023/09/04 02:18:47;;;;;;;18.20;14.23;;;;;;;13.98;100.00;102859.13;4983803;28;20738;-76
2023/09/04 02:21:14;;;;;;;14.75;13.27;;;;;;;13.96;100.00;102858.19;5013774;28;20046;-76
2023/09/04 02:23:41;;;;;;;14.93;13.30;;;;;;;13.96;100.00;102854.66;5023591;28;20059;-76
2023/09/04 02:26:09;;;;;;;15.75;13.73;;;;;;;13.93;100.00;102854.56;5030519;28;20053;-76
2023/09/04 02:28:36;;;;;;;15.77;14.07;;;;;;;13.91;100.00;102854.53;5044467;28;20042;-76
2023/09/04 02:31:08;;;;;;;16.30;14.45;;;;;;;13.90;100.00;102859.84;5012596;28;20041;-77
2023/09/04 02:33:35;;;;;;;19.65;14.40;;;;;;;13.88;100.00;102858.91;4979765;28;20048;-75
2023/09/04 02:36:03;;;;;;;16.20;14.02;;;;;;;13.85;100.00;102857.06;5001747;28;20053;-76
2023/09/04 02:38:32;;;;;;;14.85;12.48;;;;;;;13.84;100.00;102860.59;4991488;28;20057;-76
2023/09/04 02:41:00;;;;;;;16.00;14.30;;;;;;;13.84;100.00;102865.91;5015145;28;20045;-76
2023/09/04 02:43:28;;;;;;;19.02;13.50;;;;;;;13.83;100.00;102864.09;5042011;28;20053;-75
2023/09/04 02:45:57;;;;;;;15.13;13.60;;;;;;;13.82;100.00;102855.25;5025442;28;20045;-76
2023/09/04 02:48:25;;;;;;;15.88;14.25;;;;;;;13.83;100.00;102858.78;4990280;28;20517;-76
2023/09/04 02:50:58;;;;;;;17.27;15.27;;;;;;;13.82;100.00;102862.31;5009975;28;20056;-76
2023/09/04 02:53:27;;;;;;;16.83;15.02;;;;;;;13.80;100.00;102859.63;5001894;28;20049;-76
2023/09/04 02:55:54;;;;;;;16.58;14.88;;;;;;;13.78;100.00;102855.13;5014907;28;20060;-77
2023/09/04 02:58:22;;;;;;;18.30;15.57;;;;;;;13.75;100.00;102852.44;5027532;28;20418;-76
2023/09/04 03:00:50;;;;;;;17.63;14.00;;;;;;;13.72;100.00;102847.06;5007711;28;20076;-76
2023/09/04 03:03:20;;;;;;;16.65;14.85;;;;;;;13.70;100.00;102851.44;4954915;28;20053;-76
2023/09/04 03:05:48;;;;;;;16.17;14.55;;;;;;;13.67;100.00;102859.31;5041085;28;20556;-76
2023/09/04 03:08:16;;;;;;;18.38;15.13;;;;;;;13.65;100.00;102859.28;5009303;28;20037;-75
2023/09/04 03:10:45;;;;;;;17.55;15.75;;;;;;;13.63;100.00;102853.97;5015537;28;20045;-75
2023/09/04 03:13:12;;;;;;;17.05;15.35;;;;;;;13.62;100.00;102856.56;5027792;28;20049;-76
2023/09/04 03:15:40;;;;;;;17.27;14.20;;;;;;;13.61;100.00;102849.47;5008705;28;20510;-76
2023/09/04 03:18:09;;;;;;;17.48;14.38;;;;;;;13.57;100.00;102856.47;4988495;28;20068;-76
2023/09/04 03:20:37;;;;;;;16.45;14.70;;;;;;;13.56;100.00;102862.63;5011396;28;20050;-76
2023/09/04 03:23:05;;;;;;;17.80;14.23;;;;;;;13.55;100.00;102862.56;5005877;28;20076;-75
2023/09/04 03:25:33;;;;;;;16.35;14.75;;;;;;;13.53;100.00;102856.34;5042583;28;20042;-76
2023/09/04 03:28:00;;;;;;;18.80;14.57;;;;;;;13.50;100.00;102846.59;4998362;28;20064;-76
2023/09/04 03:30:28;;;;;;;15.60;14.00;;;;;;;13.49;100.00;102857.16;5027654;28;20037;-76
2023/09/04 03:32:56;;;;;;;16.33;14.18;;;;;;;13.47;100.00;102857.09;5022022;28;20060;-76
2023/09/04 03:35:23;;;;;;;15.07;13.63;;;;;;;13.45;100.00;102851.75;4969830;28;20064;-76
2023/09/04 03:37:51;;;;;;;16.15;14.00;;;;;;;13.44;100.00;102857.06;5014630;28;20426;-77
2023/09/04 03:40:23;;;;;;;14.75;13.18;;;;;;;13.41;100.00;102855.22;5024891;28;20396;-77
2023/09/04 03:42:52;;;;;;;18.40;14.52;;;;;;;13.41;100.00;102856.97;5014489;28;20049;-77
2023/09/04 03:45:19;;;;;;;15.27;13.68;;;;;;;13.39;100.00;102856.94;5024742;28;20052;-77
2023/09/04 03:47:48;;;;;;;18.50;15.07;;;;;;;13.38;100.00;102852.50;5025866;28;20060;-76
2023/09/04 03:50:16;;;;;;;15.30;13.75;;;;;;;13.35;100.00;102857.72;4988035;28;20065;-75
2023/09/04 03:52:44;;;;;;;13.65;12.25;;;;;;;13.32;100.00;102854.09;5027710;28;20402;-76
2023/09/04 03:55:12;;;;;;;18.40;13.50;;;;;;;13.30;100.00;102853.13;4986415;28;20103;-76
2023/09/04 03:57:46;;;;;;;14.52;13.00;;;;;;;13.27;100.00;102862.78;4997834;28;20050;-76
2023/09/04 04:00:16;;;;;;;13.88;12.48;;;;;;;13.26;100.00;102858.34;5039201;28;20049;-76
2023/09/04 04:02:47;;;;;;;19.13;16.58;;;;;;;13.27;100.00;102859.25;4995267;28;20057;-75
2023/09/04 04:05:17;;;;;;;16.23;14.52;;;;;;;13.24;100.00;102856.53;4984120;28;20058;-76
2023/09/04 04:07:44;;;;;;;14.93;12.95;;;;;;;13.23;100.00;102867.97;5029581;28;20045;-75
2023/09/04 04:10:12;;;;;;;14.73;13.00;;;;;;;13.21;100.00;102867.03;5010987;28;20037;-75
2023/09/04 04:12:39;;;;;;;14.65;13.15;;;;;;;13.19;100.00;102868.75;5005157;28;20053;-75
2023/09/04 04:15:08;;;;;;;16.45;13.15;;;;;;;13.17;100.00;102865.16;4996546;28;20506;-76
2023/09/04 04:17:36;;;;;;;13.25;11.95;;;;;;;13.15;100.00;102861.59;5025314;28;20052;-76
2023/09/04 04:20:11;;;;;;;13.48;12.13;;;;;;;13.14;100.00;102865.13;5022768;28;20064;-76
2023/09/04 04:22:40;;;;;;;12.48;11.18;;;;;;;13.13;100.00;102863.31;4963466;28;20057;-76
2023/09/04 04:25:08;;;;;;;11.65;10.45;;;;;;;13.11;100.00;102871.22;5012863;28;20049;-76
2023/09/04 04:27:36;;;;;;;20.00;17.88;;;;;;;13.11;100.00;102873.84;5026006;28;20041;-76
2023/09/04 04:30:03;;;;;;;15.70;12.60;;;;;;;13.10;100.00;102869.44;5023755;28;20046;-75
2023/09/04 04:32:31;;;;;;;15.10;13.50;;;;;;;13.08;100.00;102871.16;5023441;28;20437;-76
2023/09/04 04:34:58;;;;;;;13.07;11.77;;;;;;;13.07;100.00;102864.94;5025748;28;20521;-76
2023/09/04 04:37:26;;;;;;;12.48;11.20;;;;;;;13.06;100.00;102868.47;4975580;28;20053;-76
2023/09/04 04:39:54;;;;;;;15.18;11.32;;;;;;;13.06;100.00;102862.25;5019793;28;20072;-75
2023/09/04 04:42:23;;;;;;;12.43;11.18;;;;;;;13.04;100.00;102862.25;5007150;28;20046;-76
2023/09/04 04:44:55;;;;;;;13.82;11.00;;;;;;;13.04;100.00;102869.25;5008261;28;20064;-76
2023/09/04 04:47:23;;;;;;;14.52;11.85;;;;;;;13.04;100.00;102869.25;5022337;28;20080;-77
2023/09/04 04:49:54;;;;;;;13.82;11.93;;;;;;;13.02;100.00;102869.25;5022647;28;20521;-75
2023/09/04 04:52:22;;;;;;;13.32;11.15;;;;;;;13.01;100.00;102859.50;4969781;28;20487;-76
2023/09/04 04:54:49;;;;;;;13.10;11.50;;;;;;;13.01;100.00;102859.50;5010353;28;20388;-76
2023/09/04 04:57:17;;;;;;;12.80;11.50;;;;;;;13.00;100.00;102862.09;5025529;28;20048;-76
2023/09/04 04:59:45;;;;;;;15.55;11.43;;;;;;;13.00;100.00;102856.81;5031542;28;20056;-76
2023/09/04 05:02:13;;;;;;;13.88;12.43;;;;;;;13.02;100.00;102857.75;5002785;28;20542;-76
2023/09/04 05:04:45;;;;;;;18.40;11.52;;;;;;;13.02;100.00;102860.38;5024038;28;20037;-76
2023/09/04 05:07:15;;;;;;;13.40;11.75;;;;;;;13.03;100.00;102857.78;5020908;28;20494;-76
2023/09/04 05:09:43;;;;;;;13.93;12.38;;;;;;;13.05;100.00;102856.06;4960464;28;20049;-76
2023/09/04 05:12:10;;;;;;;14.73;11.77;;;;;;;13.07;100.00;102854.34;4998766;28;20053;-76
2023/09/04 05:14:38;;;;;;;16.13;11.73;;;;;;;13.09;100.00;102841.16;4999470;28;20050;-76
2023/09/04 05:17:06;;;;;;;12.75;11.18;;;;;;;13.12;100.00;102846.53;5004003;28;20507;-76
2023/09/04 05:19:34;;;;;;;14.05;12.57;;;;;;;13.15;100.00;102846.59;5026868;28;20049;-76
2023/09/04 05:22:01;;;;;;;12.20;10.95;;;;;;;13.18;100.00;102848.44;4990713;28;20060;-76
2023/09/04 05:24:29;;;;;;;12.82;11.50;;;;;;;13.21;100.00;102846.78;4979626;28;20056;-75
2023/09/04 05:26:57;;;;;;;15.23;12.77;;;;;;;13.23;100.00;102847.69;5021352;28;20045;-75
2023/09/04 05:29:25;;;;;;;14.07;11.30;;;;;;;13.26;100.00;102858.34;5022920;28;20057;-77
2023/09/04 05:31:52;;;;;;;15.10;12.45;;;;;;;13.30;100.00;102845.19;4992280;28;20057;-77
2023/09/04 05:34:20;;;;;;;13.90;12.38;;;;;;;13.35;100.00;102848.88;5017089;28;20045;-75
2023/09/04 05:36:47;;;;;;;17.15;12.43;;;;;;;13.39;100.00;102845.44;5017501;28;20045;-76
2023/09/04 05:39:14;;;;;;;13.23;11.95;;;;;;;13.44;100.00;102851.75;4992519;28;20061;-76
2023/09/04 05:41:42;;;;;;;16.83;12.95;;;;;;;13.48;100.00;102848.31;4963435;28;20741;-75
2023/09/04 05:44:10;;;;;;;12.93;11.60;;;;;;;13.54;100.00;102850.22;4999055;28;20054;-77
2023/09/04 05:46:37;;;;;;;15.07;12.63;;;;;;;13.58;100.00;102849.41;5022151;28;20040;-76
2023/09/04 05:49:05;;;;;;;14.13;12.55;;;;;;;13.62;100.00;102844.19;5018101;28;20045;-76
2023/09/04 05:51:32;;;;;;;14.15;12.57;;;;;;;13.68;100.00;102839.91;5007184;28;20053;-76
2023/09/04 05:53:59;;;;;;;13.95;12.48;;;;;;;13.75;100.00;102849.78;5008092;28;20065;-76
2023/09/04 05:56:27;;;;;;;14.63;12.18;;;;;;;13.80;100.00;102848.16;4971835;28;20042;-76
2023/09/04 05:58:56;;;;;;;13.02;11.07;;;;;;;13.86;100.00;102842.97;5022610;28;20050;-76
2023/09/04 06:01:24;;;;;;;14.48;12.93;;;;;;;13.90;100.00;102847.47;4996323;28;20065;-76
2023/09/04 06:03:51;;;;;;;15.23;12.45;;;;;;;13.95;100.00;102839.59;5008631;28;20065;-76
2023/09/04 06:06:19;;;;;;;14.70;11.82;;;;;;;14.01;100.00;102845.94;5008167;28;20486;-77
2023/09/04 06:08:46;;;;;;;19.83;11.23;;;;;;;14.06;100.00;102847.78;5015283;28;20489;-77
2023/09/04 06:11:14;;;;;;;19.00;11.13;;;;;;;14.10;100.00;102850.56;4979764;28;20038;-76
2023/09/04 06:13:41;;;;;;;12.95;10.68;;;;;;;14.15;100.00;102835.59;4981215;28;20068;-76
2023/09/04 06:16:10;;;;;;;13.10;11.02;;;;;;;14.22;100.00;102839.28;5014025;28;20037;-76
2023/09/04 06:18:37;;;;;;;12.93;10.90;;;;;;;14.28;100.00;102842.06;4998507;28;20458;-76
2023/09/04 06:21:05;;;;;;;15.57;11.45;;;;;;;14.33;100.00;102840.41;5009127;28;20045;-79
2023/09/04 06:23:32;;;;;;;11.07;9.98;;;;;;;14.40;100.00;102844.03;5014072;28;20041;-79
2023/09/04 06:26:02;;;;;;;13.65;10.60;;;;;;;14.45;100.00;102845.03;4971368;28;20045;-80
2023/09/04 06:28:30;;;;;;;12.00;10.88;;;;;;;14.54;100.00;102846.97;5003385;28;20060;-79
2023/09/04 06:30:58;;;;;;;11.68;9.68;;;;;;;14.61;100.00;102839.19;5015725;28;20052;-79
2023/09/04 06:33:25;;;;;;;11.27;10.07;;;;;;;14.71;100.00;102836.72;5002527;28;20072;-78
2023/09/04 06:35:57;;;;;;;10.93;9.82;;;;;;;14.82;100.00;102841.31;5026772;28;20057;-80
2023/09/04 06:38:25;;;;;;;11.02;9.20;;;;;;;14.95;100.00;102847.75;5030142;28;20053;-78
2023/09/04 06:40:57;;;;;;;10.60;9.48;;;;;;;15.11;100.00;102843.56;4998791;28;20486;-77
2023/09/04 06:43:27;;;;;;;11.70;9.65;;;;;;;15.31;100.00;102842.97;4986152;28;20250;-76
2023/09/04 06:45:54;;;;;;;9.68;8.68;;;;;;;15.52;100.00;102847.72;5010502;28;20524;-77
2023/09/04 06:48:22;;;;;;;12.45;9.88;;;;;;;15.90;100.00;102848.28;5037200;28;20068;-77
2023/09/04 06:50:51;;;;;;;9.40;8.45;;;;;;;16.38;100.00;102844.41;5005643;28;20049;-77
2023/09/04 06:53:18;;;;;;;9.20;8.13;;;;;;;16.87;100.00;102852.03;5022243;28;20045;-77
2023/09/04 06:55:49;;;;;;;11.18;8.02;;;;;;;17.32;100.00;102852.41;5024648;28;20490;-78
2023/09/04 06:58:17;;;;;;;8.73;7.90;;;;;;;17.62;100.00;102854.38;4979888;28;20488;-77
2023/09/04 07:00:44;;;;;;;9.73;8.18;;;;;;;17.74;100.00;102862.41;5000555;28;20056;-76
2023/09/04 07:03:11;;;;;;;10.75;8.55;;;;;;;17.85;100.00;102865.19;5026639;28;20414;-78
2023/09/04 07:05:38;;;;;;;9.65;7.60;;;;;;;17.98;100.00;102862.59;5021083;28;20045;-77
2023/09/04 07:08:06;;;;;;;12.82;8.20;;;;;;;18.09;100.00;102864.41;5009739;28;20363;-77
2023/09/04 07:10:33;;;;;;;11.45;7.38;;;;;;;18.13;100.00;102862.66;5038535;28;20041;-77
2023/09/04 07:13:02;;;;;;;13.07;8.55;;;;;;;18.18;100.00;102859.97;4968023;28;20057;-76
2023/09/04 07:15:29;;;;;;;10.23;6.90;;;;;;;18.30;100.00;102866.25;5014990;28;20556;-78
2023/09/04 07:18:00;;;;;;;10.43;6.47;;;;;;;18.32;100.00;102860.94;5021726;28;20061;-78
2023/09/04 07:20:27;;;;;;;8.65;7.65;;;;;;;18.31;100.00;102867.13;5013954;28;20052;-79
2023/09/04 07:22:55;;;;;;;9.95;7.40;;;;;;;18.29;100.00;102866.25;5008384;28;20058;-79
2023/09/04 07:25:40;;;;;;;8.90;7.45;;;;;;;18.29;100.00;102859.13;5038191;28;20049;-79
2023/09/04 07:28:08;;;;;;;9.18;7.82;;;;;;;18.30;100.00;102866.25;4973673;28;20053;-79
2023/09/04 07:30:35;;;;;;;9.50;7.75;;;;;;;18.39;100.00;102862.75;4991555;28;20042;-79
2023/09/04 07:33:03;;;;;;;10.20;7.43;;;;;;;18.44;100.00;102868.97;5027517;28;20060;-78
2023/09/04 07:35:30;;;;;;;9.30;7.30;;;;;;;18.48;100.00;102864.53;5031436;28;20416;-79
2023/09/04 07:37:57;;;;;;;7.00;6.30;;;;;;;18.55;100.00;102860.09;5011595;28;20057;-79
2023/09/04 07:40:25;;;;;;;7.18;6.40;;;;;;;18.61;100.00;102866.31;5021262;28;20068;-78
2023/09/04 07:42:52;;;;;;;9.40;6.72;;;;;;;18.72;100.00;102865.47;5026685;28;20057;-79
2023/09/04 07:45:21;;;;;;;6.97;6.28;;;;;;;18.78;100.00;102860.13;4994177;28;20057;-79
2023/09/04 07:47:48;;;;;;;6.00;5.50;;;;;;;18.85;100.00;102859.28;5034903;28;20064;-78
2023/09/04 07:50:15;;;;;;;7.45;5.90;;;;;;;18.88;100.00;102856.59;5015513;28;20080;-78
2023/09/04 07:52:43;;;;;;;8.95;5.88;;;;;;;18.94;100.00;102859.28;5014354;28;20437;-78
2023/09/04 07:55:10;;;;;;;6.15;5.55;;;;;;;19.05;100.00;102857.50;5010308;28;20064;-79
2023/09/04 07:57:38;;;;;;;6.85;6.00;;;;;;;19.21;100.00;102857.50;5032367;28;20038;-78
2023/09/04 08:00:06;;;;;;;5.75;5.25;;;;;;;19.37;100.00;102856.56;4989143;28;20159;-79
2023/09/04 08:02:39;;;;;;;8.48;6.25;;;;;;;19.57;100.00;102855.66;5005887;28;20064;-78
2023/09/04 08:05:07;;;;;;;7.90;5.85;;;;;;;19.72;100.00;102861.00;5016287;28;20057;-80
2023/09/04 08:07:34;;;;;;;6.82;4.13;;;;;;;19.82;100.00;102864.53;5003192;28;20053;-79
2023/09/04 08:10:01;;;;;;;5.22;4.72;;;;;;;19.88;100.00;102860.94;5024240;28;20060;-80
2023/09/04 08:12:29;;;;;;;5.45;4.78;;;;;;;19.97;100.00;102863.56;5033590;28;20017;-79
2023/09/04 08:14:56;;;;;;;7.20;4.90;;;;;;;20.16;100.00;102862.59;5012036;28;20048;-80
2023/09/04 08:17:25;;;;;;;6.78;5.38;;;;;;;20.33;100.00;102859.81;4996662;28;20514;-79
2023/09/04 08:19:55;;;;;;;5.43;4.57;;;;;;;20.49;100.00;102854.38;5018900;28;20046;-79
2023/09/04 08:22:22;;;;;;;4.35;3.95;;;;;;;20.70;100.00;102858.72;5007655;28;20041;-79
2023/09/04 08:24:50;;;;;;;5.25;4.70;;;;;;;20.82;100.00;102854.16;4991746;28;20126;-78
2023/09/04 08:27:18;;;;;;;7.40;3.78;;;;;;;21.01;100.00;102851.34;5016145;28;20049;-78
2023/09/04 08:29:45;;;;;;;4.30;3.90;;;;;;;21.20;100.00;102854.75;5059217;28;20049;-79
2023/09/04 08:32:12;;;;;;;4.00;3.55;;;;;;;21.41;100.00;102859.88;4959439;28;20064;-78
2023/09/04 08:34:39;;;;;;;4.20;3.85;;;;;;;21.64;100.00;102858.78;5006600;28;20072;-79
2023/09/04 08:37:08;;;;;;;6.80;3.78;;;;;;;21.86;100.00;102851.38;5024757;28;20050;-79
2023/09/04 08:39:35;;;;;;;4.30;3.60;;;;;;;22.09;100.00;102853.75;5010354;28;20038;-79
2023/09/04 08:42:07;;;;;;;4.60;3.47;;;;;;;22.33;100.00;102847.19;5035262;28;20065;-79
2023/09/04 08:44:36;;;;;;;3.35;3.08;;;;;;;22.50;100.00;102848.75;5022554;28;21093;-81
2023/09/04 08:47:06;;;;;;;6.50;3.47;;;;;;;22.63;100.00;102849.44;4971533;28;20049;-79
2023/09/04 08:49:34;;;;;;;4.30;3.10;;;;;;;22.76;100.00;102841.19;5004739;28;20045;-80
2023/09/04 08:52:04;;;;;;;3.03;2.83;;;;;;;22.86;100.00;102852.66;5026724;28;20560;-79
2023/09/04 08:54:32;;;;;;;6.38;2.33;;;;;;;23.01;100.00;102846.13;5011918;28;20065;-79
2023/09/04 08:57:00;;;;;;;2.75;2.55;;;;;;;23.12;100.00;102846.00;5018894;28;20490;-80
2023/09/04 08:59:28;;;;;;;3.03;2.40;;;;;;;23.05;100.00;102844.31;5038261;28;20049;-79
2023/09/04 09:01:56;;;;;;;4.35;2.38;;;;;;;22.89;100.00;102844.56;4985689;28;20052;-80
2023/09/04 09:04:25;;;;;;;2.75;2.20;;;;;;;22.76;100.00;102840.28;5007996;28;20076;-79
2023/09/04 09:06:53;;;;;;;2.85;2.50;;;;;;;22.61;100.00;102836.06;5022027;28;20042;-80
2023/09/04 09:09:22;;;;;;;4.78;2.50;;;;;;;22.51;100.00;102835.31;4999965;28;20079;-78
2023/09/04 09:11:53;;;;;;;2.35;2.08;;;;;;;22.47;100.00;102833.56;5013050;28;20052;-77
2023/09/04 09:14:28;;;;;;;2.50;2.10;;;;;;;22.50;100.00;102829.97;5010094;28;20053;-77
2023/09/04 09:17:07;;;;;;;2.97;2.50;;;;;;;22.53;100.00;102827.19;4993583;28;20030;-77
2023/09/04 09:19:35;;;;;;;5.40;2.42;;;;;;;22.58;100.00;102830.72;5010637;28;20041;-77
2023/09/04 09:22:17;;;;;;;5.00;2.97;;;;;;;22.48;100.00;102824.59;5022690;28;20897;-77
2023/09/04 09:24:50;;;;;;;6.20;2.95;;;;;;;22.32;100.00;102825.72;4985183;28;20049;-77
2023/09/04 09:27:20;;;;;;;3.22;2.92;;;;;;;22.13;100.00;102817.91;5011334;28;20068;-77
2023/09/04 09:29:51;;;;;;;6.63;2.60;;;;;;;22.00;100.00;102818.97;5021348;28;20048;-76
2023/09/04 09:32:19;;;;;;;3.60;2.92;;;;;;;21.90;100.00;102814.66;5021391;28;20042;-76
2023/09/04 09:34:51;;;;;;;3.58;2.55;;;;;;;21.89;100.00;102810.19;4940849;28;20064;-76
2023/09/04 09:37:20;;;;;;;5.65;2.85;;;;;;;21.89;100.00;102807.50;5022901;28;20640;-76
2023/09/04 09:39:48;;;;;;;2.75;2.55;;;;;;;21.91;100.00;102811.97;5013171;28;20421;-76
2023/09/04 09:42:15;;;;;;;3.78;2.53;;;;;;;21.94;100.00;102809.22;5022537;28;20058;-76
2023/09/04 09:44:42;;;;;;;3.03;2.38;;;;;;;21.99;100.00;102806.47;5005570;28;20056;-76
2023/09/04 09:47:10;;;;;;;2.67;2.42;;;;;;;22.04;100.00;102809.09;5005359;28;20053;-76
2023/09/04 09:49:40;;;;;;;3.05;2.63;;;;;;;22.08;100.00;102806.34;4971506;28;20049;-76
2023/09/04 09:52:08;;;;;;;4.13;3.13;;;;;;;22.15;100.00;102801.78;5003693;28;20049;-76
2023/09/04 09:54:47;;;;;;;4.32;2.75;;;;;;;22.22;100.00;102802.59;4997017;28;20315;-76
2023/09/04 09:57:17;;;;;;;3.13;2.80;;;;;;;22.25;100.00;102799.84;4999467;28;20042;-76
2023/09/04 09:59:47;;;;;;;3.95;3.55;;;;;;;22.22;100.00;102791.84;5024511;28;20041;-76
2023/09/04 10:02:19;;;;;;;;;;;;;;;22.20;99.81;102787.38;5006344;28;20045;-76
2023/09/04 10:04:47;;;;;;;3.03;2.83;;;;;;;22.25;100.00;102789.09;4993179;28;19921;-76
2023/09/04 10:07:29;;;;;;;3.58;3.28;;;;;;;22.29;100.00;102796.25;5005788;28;20057;-76
2023/09/04 10:10:05;;;;;;;4.65;4.07;;;;;;;22.35;100.00;102783.59;5005799;28;20491;-76
2023/09/04 10:12:48;;;;;;;4.55;3.63;;;;;;;22.35;100.00;102790.78;5003206;28;20045;-77
2023/09/04 10:15:26;;;;;;;3.58;3.25;;;;;;;22.35;100.00;102780.91;5016335;28;20057;-76
2023/09/04 10:18:00;;;;;;;3.78;2.17;;;;;;;22.37;100.00;102784.47;5017920;28;20064;-77
2023/09/04 10:20:27;;;;;;;4.88;2.20;;;;;;;22.38;100.00;102779.97;4980615;28;20049;-76
2023/09/04 10:23:09;;;;;;;2.40;2.30;;;;;;;22.42;99.37;102778.13;5024521;28;20046;-76
2023/09/04 10:25:43;;;;;;;2.50;2.30;;;;;;;22.43;99.22;102777.22;5017321;28;20061;-76
2023/09/04 10:28:33;;;;;;;4.43;2.45;;;;;;;22.41;99.05;102765.63;5023631;28;20041;-76
2023/09/04 10:31:12;;;;;;;3.90;2.50;;;;;;;22.47;99.46;102768.22;5008464;28;20229;-75
2023/09/04 10:33:41;;;;;;;2.72;2.53;;;;;;;22.43;98.40;102767.38;5020799;28;20057;-75
2023/09/04 10:36:09;;;;;;;4.03;2.30;;;;;;;22.41;98.54;102769.19;4950970;28;20052;-75
2023/09/04 10:38:37;;;;;;;4.30;1.98;;;;;;;22.47;98.72;102771.78;5006867;28;20120;-75
2023/09/04 10:41:07;;;;;;;;;;;;;;;22.52;95.46;102764.53;5024716;28;20054;-75
2023/09/04 10:43:43;;;;;;;2.80;2.20;;;;;;;22.57;98.40;102765.34;4987651;28;19947;-76
2023/09/04 10:46:12;;;;;;;2.28;2.17;;;;;;;22.62;98.40;102769.75;5006811;28;20050;-77
2023/09/04 10:48:48;;;;;;;4.53;2.93;;;;;;;22.64;99.17;102755.38;5003282;28;20049;-77
2023/09/04 10:51:30;;;;;;;5.80;3.20;;;;;;;22.75;99.05;102758.75;4970346;28;20065;-77
2023/09/04 10:54:01;;;;;;;3.30;3.00;;;;;;;22.82;99.22;102759.56;5028471;28;20049;-77
2023/09/04 10:56:29;;;;;;;2.72;2.30;;;;;;;22.86;97.68;102755.88;5015926;28;20042;-78
2023/09/04 10:59:04;;;;;;;2.70;2.50;;;;;;;22.89;97.40;102752.25;5003749;28;20415;-78
2023/09/04 11:01:38;;;;;;;4.55;2.47;;;;;;;22.93;97.27;102740.53;5014849;28;20045;-78
2023/09/04 11:04:08;;;;;;;2.65;2.22;;;;;;;23.00;97.12;102742.19;4998188;28;20058;-80
2023/09/04 11:06:40;;;;;;;5.23;2.50;;;;;;;23.04;95.97;102738.56;4972223;28;20054;-77
2023/09/04 11:09:11;;;;;;;6.20;2.70;;;;;;;23.09;95.60;102731.28;5028014;28;20041;-76
2023/09/04 11:11:39;;;;;;;4.05;2.25;;;;;;;23.14;96.24;102721.34;5041297;28;20045;-75
2023/09/04 11:14:06;;;;;;;2.97;2.60;;;;;;;23.18;95.72;102723.97;5028134;28;20049;-76
2023/09/04 11:16:50;;;;;;;2.85;2.65;;;;;;;23.24;96.04;102716.66;5014420;28;20557;-79
2023/09/04 11:19:18;;;;;;;2.67;2.47;;;;;;;23.30;96.35;102713.84;5037763;28;20040;-76